Turbat Weather



Turbat's Current Weather

Temprature 16.74o clear sky

clear sky

Rain: 0 %

Min Temprature16.74o
Max Temprature16.74o
Humidity51
Wind Speed0.92 m/h
Sun Rise06:53:59
Sun Set18:09:02
Current Time: 28-Oct-2020 07:19:18
Lat/Lon: 26, 63.04




Turbat's Geo Location



Turbat's Weather Forecast

Time Overall Temp Min Temp Max Temp Humidity Wind Speed Rain
28-Oct-2020 (Wed)
08:00:00 clear sky 19.720 19.720 22.830 42 1.15 m/h 0 %
11:00:00 clear sky 29.350 29.350 32.820 19 3.35 m/h 0 %
14:00:00 clear sky 35.210 35.210 36.470 10 3.52 m/h 0 %
17:00:00 clear sky 35.160 35.160 35.310 8 6.03 m/h 0 %
20:00:00 clear sky 26.800 26.800 26.800 15 7.43 m/h 0 %
23:00:00 clear sky 23.840 23.840 23.840 19 5.16 m/h 0 %
29-Oct-2020 (Thu)
02:00:00 clear sky 24.330 24.330 24.330 19 15.09 m/h 0 %
05:00:00 clear sky 22.620 22.620 22.620 21 13.04 m/h 0 %
08:00:00 clear sky 23.270 23.270 23.270 19 14.1 m/h 0 %
11:00:00 clear sky 30.800 30.800 30.800 11 10.56 m/h 0 %
14:00:00 clear sky 34.000 34.000 34.000 9 7.75 m/h 0 %
17:00:00 clear sky 31.930 31.930 31.930 10 9.14 m/h 0 %
20:00:00 clear sky 23.980 23.980 23.980 17 5.93 m/h 0 %
23:00:00 clear sky 18.380 18.380 18.380 24 1.52 m/h 0 %
30-Oct-2020 (Fri)
02:00:00 clear sky 18.100 18.100 18.100 23 2.81 m/h 0 %
05:00:00 clear sky 17.810 17.810 17.810 23 3.97 m/h 0 %
08:00:00 clear sky 20.560 20.560 20.560 20 5.42 m/h 0 %
11:00:00 clear sky 30.310 30.310 30.310 11 7.23 m/h 0 %
14:00:00 clear sky 33.350 33.350 33.350 10 2.76 m/h 0 %
17:00:00 clear sky 33.390 33.390 33.390 10 1.02 m/h 0 %
20:00:00 clear sky 22.960 22.960 22.960 28 3.26 m/h 0 %
23:00:00 clear sky 21.000 21.000 21.000 22 3.3 m/h 0 %
31-Oct-2020 (Sat)
02:00:00 clear sky 20.460 20.460 20.460 22 4.59 m/h 0 %
05:00:00 clear sky 20.160 20.160 20.160 20 4.61 m/h 0 %
08:00:00 clear sky 21.540 21.540 21.540 17 4.69 m/h 0 %
11:00:00 clear sky 31.440 31.440 31.440 9 6.1 m/h 0 %
14:00:00 clear sky 33.670 33.670 33.670 8 1.39 m/h 0 %
17:00:00 clear sky 33.740 33.740 33.740 7 0.81 m/h 0 %
20:00:00 clear sky 21.740 21.740 21.740 15 1.91 m/h 0 %
23:00:00 clear sky 19.900 19.900 19.900 18 2.7 m/h 0 %
01-Nov-2020 (Sun)
02:00:00 clear sky 20.270 20.270 20.270 18 3.59 m/h 0 %
05:00:00 clear sky 19.650 19.650 19.650 17 3.97 m/h 0 %
08:00:00 clear sky 22.120 22.120 22.120 15 5.09 m/h 0 %
11:00:00 clear sky 31.880 31.880 31.880 8 6.79 m/h 0 %
14:00:00 clear sky 34.550 34.550 34.550 6 3.48 m/h 0 %
17:00:00 clear sky 34.080 34.080 34.080 6 5.12 m/h 0 %
20:00:00 clear sky 23.660 23.660 23.660 14 4.82 m/h 0 %
23:00:00 clear sky 18.660 18.660 18.660 20 2.3 m/h 0 %
02-Nov-2020 (Mon)
02:00:00 clear sky 20.130 20.130 20.130 18 3.88 m/h 0 %
05:00:00 clear sky 18.540 18.540 18.540 19 3.5 m/h 0 %

Famous Cities (60)